Time;durP1;ratioP1;P1;durP2;ratioP2;P2;SDS_P1;SDS_P2;PMS_P1;PMS_P2;Temp;Humidity;BMP_temperature;BMP_pressure;BME280_temperature;BME280_humidity;BME280_pressure;Samples;Min_cycle;Max_cycle;Signal;HPM_P1;HPM_P2
2021/12/31 00:01:56;;;;;;;0.30;0.20;;;11.90;99.90;;;;;;5069206;28;20494;-83
2021/12/31 00:04:24;;;;;;;0.30;0.20;;;11.90;99.90;;;;;;5068523;28;20554;-84
2021/12/31 00:06:51;;;;;;;0.30;0.20;;;11.90;99.90;;;;;;5070929;28;20444;-83
2021/12/31 00:09:18;;;;;;;0.30;0.20;;;11.90;99.90;;;;;;5071513;28;20515;-87
2021/12/31 00:11:45;;;;;;;0.30;0.10;;;11.80;99.90;;;;;;5070613;28;20459;-84
2021/12/31 00:14:11;;;;;;;0.30;0.20;;;11.90;99.90;;;;;;5069968;28;20866;-84
2021/12/31 00:16:38;;;;;;;0.30;0.20;;;11.90;99.90;;;;;;5067273;28;20500;-84
2021/12/31 00:19:07;;;;;;;0.30;0.20;;;11.80;99.90;;;;;;5072547;28;20440;-85
2021/12/31 00:21:36;;;;;;;0.30;0.20;;;11.90;99.90;;;;;;5070695;28;20988;-83
2021/12/31 00:24:04;;;;;;;0.30;0.20;;;11.90;99.90;;;;;;5068473;28;21009;-83
2021/12/31 00:26:31;;;;;;;0.30;0.20;;;11.80;99.90;;;;;;5071510;28;21252;-82
2021/12/31 00:28:58;;;;;;;0.30;0.20;;;11.80;99.90;;;;;;5069098;28;20446;-84
2021/12/31 00:31:25;;;;;;;0.30;0.20;;;11.80;99.90;;;;;;5082820;28;20438;-84
2021/12/31 00:33:51;;;;;;;0.30;0.20;;;11.90;99.90;;;;;;5096637;28;20449;-84
2021/12/31 00:36:20;;;;;;;0.30;0.20;;;11.80;99.90;;;;;;5091049;28;20469;-84
2021/12/31 00:38:47;;;;;;;0.30;0.20;;;11.80;99.90;;;;;;5087641;28;20471;-83
2021/12/31 00:41:14;;;;;;;0.30;0.20;;;11.80;99.90;;;;;;5074073;28;20504;-85
2021/12/31 00:43:41;;;;;;;0.30;0.20;;;11.80;99.90;;;;;;5073095;28;20444;-84
2021/12/31 00:46:08;;;;;;;0.30;0.20;;;11.70;99.90;;;;;;5070025;28;20495;-83
2021/12/31 00:48:35;;;;;;;0.30;0.20;;;11.70;99.90;;;;;;5070856;28;20470;-84
2021/12/31 00:51:03;;;;;;;0.30;0.20;;;11.70;99.90;;;;;;5065923;28;20930;-83
2021/12/31 00:53:31;;;;;;;0.30;0.20;;;11.70;99.90;;;;;;5070918;28;20527;-86
2021/12/31 00:55:58;;;;;;;0.30;0.20;;;11.60;99.90;;;;;;5072217;28;20930;-83
2021/12/31 00:58:25;;;;;;;0.77;0.30;;;11.60;99.90;;;;;;5068041;28;20946;-84
2021/12/31 01:00:52;;;;;;;0.30;0.20;;;11.60;99.90;;;;;;5067900;28;20501;-84
2021/12/31 01:03:19;;;;;;;0.30;0.17;;;11.60;99.90;;;;;;5070593;28;20889;-83
2021/12/31 01:05:46;;;;;;;0.30;0.20;;;11.60;99.90;;;;;;5069636;28;20539;-84
2021/12/31 01:08:12;;;;;;;0.30;0.10;;;11.60;99.90;;;;;;5069380;28;20941;-84
2021/12/31 01:10:41;;;;;;;0.30;0.20;;;11.50;99.90;;;;;;5069255;28;20444;-84
2021/12/31 01:13:13;;;;;;;0.30;0.20;;;11.50;99.90;;;;;;5065084;28;20440;-82
2021/12/31 01:15:43;;;;;;;0.30;0.20;;;11.50;99.90;;;;;;5066196;28;20460;-86
2021/12/31 01:18:21;;;;;;;0.40;0.30;;;11.50;99.90;;;;;;5071282;28;20527;-83
2021/12/31 01:20:49;;;;;;;0.30;0.17;;;11.50;99.90;;;;;;5069773;28;20440;-83
2021/12/31 01:23:17;;;;;;;0.30;0.20;;;11.40;99.90;;;;;;5068635;28;20495;-83
2021/12/31 01:25:46;;;;;;;0.30;0.20;;;11.50;99.90;;;;;;5068110;28;20488;-85
2021/12/31 01:28:13;;;;;;;0.30;0.20;;;11.50;99.90;;;;;;5069182;28;20439;-84
2021/12/31 01:30:40;;;;;;;0.30;0.20;;;11.50;99.90;;;;;;5069730;28;20497;-85
2021/12/31 01:33:08;;;;;;;0.30;0.20;;;11.50;99.90;;;;;;5068957;28;20513;-83
2021/12/31 01:35:35;;;;;;;0.30;0.20;;;11.50;99.90;;;;;;5068752;28;20890;-83
2021/12/31 01:38:02;;;;;;;0.30;0.20;;;11.50;99.90;;;;;;5069778;28;20915;-85
2021/12/31 01:40:30;;;;;;;0.30;0.10;;;11.60;99.90;;;;;;5069470;28;20435;-84
2021/12/31 01:42:58;;;;;;;0.30;0.20;;;11.50;99.90;;;;;;5068058;28;20860;-82
2021/12/31 01:45:29;;;;;;;0.30;0.20;;;11.50;99.90;;;;;;5066611;28;21063;-83
2021/12/31 01:48:04;;;;;;;0.30;0.20;;;11.50;99.90;;;;;;5070037;28;20823;-83
2021/12/31 01:50:31;;;;;;;0.30;0.20;;;11.50;99.90;;;;;;5070077;28;20451;-83
2021/12/31 01:52:59;;;;;;;0.30;0.20;;;11.50;99.90;;;;;;5067310;28;20495;-84
2021/12/31 01:55:32;;;;;;;0.30;0.20;;;11.50;99.90;;;;;;5069111;28;20883;-84
2021/12/31 01:58:02;;;;;;;0.40;0.30;;;11.40;99.90;;;;;;5070312;28;20448;-84
2021/12/31 02:00:29;;;;;;;0.30;0.20;;;11.40;99.90;;;;;;5069015;28;20444;-83
2021/12/31 02:02:57;;;;;;;0.30;0.10;;;11.40;99.90;;;;;;5068642;28;20510;-85
2021/12/31 02:05:24;;;;;;;0.30;0.20;;;11.30;99.90;;;;;;5064563;28;20499;-84
2021/12/31 02:07:51;;;;;;;0.30;0.13;;;11.40;99.90;;;;;;5068652;28;20456;-86
2021/12/31 02:10:18;;;;;;;0.30;0.20;;;11.40;99.90;;;;;;5072499;28;20439;-83
2021/12/31 02:12:47;;;;;;;0.30;0.20;;;11.40;99.90;;;;;;5095279;28;20506;-84
2021/12/31 02:15:17;;;;;;;0.30;0.20;;;11.40;99.90;;;;;;5087685;28;20517;-84
2021/12/31 02:17:47;;;;;;;0.30;0.20;;;11.40;99.90;;;;;;5079967;28;20463;-82
2021/12/31 02:20:16;;;;;;;0.30;0.20;;;11.30;99.90;;;;;;5077168;28;20451;-83
2021/12/31 02:22:51;;;;;;;0.30;0.10;;;11.30;99.90;;;;;;5061593;28;20464;-83
2021/12/31 02:25:19;;;;;;;0.30;0.20;;;11.30;99.90;;;;;;5070595;28;20475;-84
2021/12/31 02:27:46;;;;;;;0.30;0.10;;;11.30;99.90;;;;;;5070909;28;20843;-84
2021/12/31 02:30:14;;;;;;;0.30;0.20;;;11.30;99.90;;;;;;5071487;28;20462;-82
2021/12/31 02:32:40;;;;;;;0.30;0.20;;;11.30;99.90;;;;;;5062975;28;20441;-83
2021/12/31 02:35:10;;;;;;;0.30;0.20;;;11.30;99.90;;;;;;5067960;28;20444;-84
2021/12/31 02:37:38;;;;;;;0.30;0.20;;;11.30;99.90;;;;;;5069837;28;20525;-85
2021/12/31 02:40:09;;;;;;;0.30;0.10;;;11.30;99.90;;;;;;5070446;28;20521;-83
2021/12/31 02:42:36;;;;;;;0.30;0.20;;;11.30;99.90;;;;;;5067956;28;20463;-86
2021/12/31 02:45:06;;;;;;;0.30;0.20;;;11.30;99.90;;;;;;5071065;28;20511;-83
2021/12/31 02:47:33;;;;;;;0.30;0.20;;;11.30;99.90;;;;;;5070606;28;20866;-86
2021/12/31 02:50:03;;;;;;;0.30;0.20;;;11.30;99.90;;;;;;5071267;28;20459;-84
2021/12/31 02:52:30;;;;;;;0.30;0.20;;;11.30;99.90;;;;;;5068116;28;20444;-86
2021/12/31 02:55:01;;;;;;;0.30;0.20;;;11.40;99.90;;;;;;5076673;28;20539;-84
2021/12/31 02:57:28;;;;;;;0.30;0.10;;;11.40;99.90;;;;;;5069984;28;20442;-85
2021/12/31 02:59:55;;;;;;;0.30;0.17;;;11.40;99.90;;;;;;5067015;28;20451;-84
2021/12/31 03:02:24;;;;;;;0.30;0.20;;;11.40;99.90;;;;;;5065294;28;20495;-83
2021/12/31 03:04:52;;;;;;;0.30;0.20;;;11.40;99.90;;;;;;5069754;28;20479;-84
2021/12/31 03:07:22;;;;;;;0.30;0.20;;;11.50;99.90;;;;;;5071815;28;20513;-86
2021/12/31 03:09:51;;;;;;;0.30;0.20;;;11.50;99.90;;;;;;5073994;28;20523;-86
2021/12/31 03:12:19;;;;;;;0.30;0.20;;;11.40;99.90;;;;;;5070134;28;20479;-85
2021/12/31 03:14:50;;;;;;;0.30;0.20;;;11.40;99.90;;;;;;5068407;28;20443;-84
2021/12/31 03:17:19;;;;;;;0.30;0.20;;;11.40;99.90;;;;;;5074048;28;20470;-83
2021/12/31 03:19:46;;;;;;;0.30;0.20;;;11.40;99.90;;;;;;5073331;28;20466;-87
2021/12/31 03:22:13;;;;;;;0.30;0.10;;;11.40;99.90;;;;;;5071818;28;20475;-86
2021/12/31 03:24:41;;;;;;;0.30;0.10;;;11.40;99.90;;;;;;5068200;28;20819;-84
2021/12/31 03:27:08;;;;;;;0.30;0.10;;;11.40;99.90;;;;;;5072385;28;20505;-83
2021/12/31 03:29:36;;;;;;;0.30;0.20;;;11.50;99.90;;;;;;5071121;28;20472;-84
2021/12/31 03:32:03;;;;;;;0.30;0.10;;;11.50;99.90;;;;;;5069318;28;20444;-85
2021/12/31 03:34:30;;;;;;;0.30;0.20;;;11.40;99.90;;;;;;5069685;28;20509;-84
2021/12/31 03:36:57;;;;;;;0.30;0.13;;;11.40;99.90;;;;;;5072243;28;20502;-84
2021/12/31 03:39:24;;;;;;;0.30;0.20;;;11.50;99.90;;;;;;5072084;28;20553;-84
2021/12/31 03:41:51;;;;;;;0.30;0.10;;;11.50;99.90;;;;;;5071631;28;20432;-84
2021/12/31 03:44:18;;;;;;;0.30;0.17;;;11.50;99.90;;;;;;5072058;28;20864;-84
2021/12/31 03:46:46;;;;;;;0.30;0.20;;;11.60;99.90;;;;;;5069793;28;20934;-85
2021/12/31 03:49:13;;;;;;;0.30;0.20;;;11.50;99.90;;;;;;5070704;28;21003;-86
2021/12/31 03:51:40;;;;;;;0.30;0.10;;;11.50;99.90;;;;;;5097558;28;20443;-85
2021/12/31 03:54:07;;;;;;;0.30;0.17;;;11.50;99.90;;;;;;5094762;28;20448;-84
2021/12/31 03:56:34;;;;;;;0.30;0.13;;;11.50;99.90;;;;;;5088272;28;20472;-83
2021/12/31 03:59:01;;;;;;;0.30;0.13;;;11.50;99.90;;;;;;5085715;28;20875;-83
2021/12/31 04:01:29;;;;;;;0.30;0.10;;;11.50;99.90;;;;;;5084116;28;20477;-84
2021/12/31 04:03:57;;;;;;;0.30;0.20;;;11.50;99.90;;;;;;5067312;28;20946;-87
2021/12/31 04:06:24;;;;;;;0.30;0.20;;;11.50;99.90;;;;;;5072059;28;20483;-84
2021/12/31 04:08:51;;;;;;;0.30;0.20;;;11.50;99.90;;;;;;5072875;28;20440;-84
2021/12/31 04:11:18;;;;;;;0.30;0.20;;;11.40;99.90;;;;;;5068600;28;20505;-84
2021/12/31 04:13:45;;;;;;;0.30;0.20;;;11.40;99.90;;;;;;5070602;28;20456;-85
2021/12/31 04:16:12;;;;;;;0.30;0.10;;;11.40;99.90;;;;;;5069558;28;20444;-84
2021/12/31 04:18:39;;;;;;;0.30;0.20;;;11.40;99.90;;;;;;5071062;28;20444;-84
2021/12/31 04:21:08;;;;;;;0.40;0.40;;;11.40;99.90;;;;;;5070501;28;21027;-84
2021/12/31 04:23:47;;;;;;;0.30;0.20;;;11.40;99.90;;;;;;5070223;28;20490;-85
2021/12/31 04:26:14;;;;;;;0.30;0.20;;;11.30;99.90;;;;;;5070549;28;20567;-84
2021/12/31 04:28:41;;;;;;;0.30;0.20;;;11.40;99.90;;;;;;5073243;28;20847;-85
2021/12/31 04:31:08;;;;;;;0.30;0.10;;;11.30;99.90;;;;;;5069106;28;21357;-84
2021/12/31 04:33:35;;;;;;;0.30;0.20;;;11.40;99.90;;;;;;5066386;28;20435;-85
2021/12/31 04:36:02;;;;;;;0.30;0.20;;;11.40;99.90;;;;;;5070050;28;20517;-84
2021/12/31 04:38:31;;;;;;;0.30;0.10;;;11.40;99.90;;;;;;5070345;28;20467;-84
2021/12/31 04:40:58;;;;;;;0.30;0.20;;;11.40;99.90;;;;;;5070310;28;20838;-86
2021/12/31 04:43:25;;;;;;;0.30;0.20;;;11.40;99.90;;;;;;5069144;28;20471;-83
2021/12/31 04:45:52;;;;;;;0.30;0.20;;;11.40;99.90;;;;;;5070502;28;20481;-84
2021/12/31 04:48:19;;;;;;;0.30;0.20;;;11.40;99.90;;;;;;5070503;28;20444;-85
2021/12/31 04:50:46;;;;;;;0.30;0.20;;;11.40;99.90;;;;;;5073731;28;20459;-84
2021/12/31 04:53:13;;;;;;;0.30;0.10;;;11.50;99.90;;;;;;5071027;28;20937;-83
2021/12/31 04:55:41;;;;;;;0.30;0.20;;;11.50;99.90;;;;;;5063782;28;20506;-83
2021/12/31 04:58:08;;;;;;;0.40;0.40;;;11.50;99.90;;;;;;5066162;28;20444;-83
2021/12/31 05:00:35;;;;;;;0.30;0.20;;;11.50;99.90;;;;;;5070472;28;20519;-83
2021/12/31 05:03:07;;;;;;;0.30;0.20;;;11.50;99.90;;;;;;5067848;28;20484;-83
2021/12/31 05:05:34;;;;;;;0.30;0.20;;;11.60;99.90;;;;;;5063427;28;20491;-84
2021/12/31 05:08:01;;;;;;;0.30;0.10;;;11.50;99.90;;;;;;5069820;28;20440;-83
2021/12/31 05:10:30;;;;;;;0.30;0.20;;;11.50;99.90;;;;;;5068509;28;20557;-86
2021/12/31 05:12:59;;;;;;;0.30;0.20;;;11.50;99.90;;;;;;5060229;28;20833;-84
2021/12/31 05:15:28;;;;;;;0.30;0.10;;;11.50;99.90;;;;;;5068787;28;20900;-84
2021/12/31 05:17:55;;;;;;;0.30;0.10;;;11.50;99.90;;;;;;5069411;28;20570;-83
2021/12/31 05:20:23;;;;;;;0.30;0.20;;;11.50;99.90;;;;;;5069159;28;20482;-83
2021/12/31 05:22:52;;;;;;;0.30;0.20;;;11.60;99.90;;;;;;5070661;28;20459;-83
2021/12/31 05:25:19;;;;;;;0.30;0.20;;;11.60;99.90;;;;;;5071340;28;21020;-83
2021/12/31 05:27:46;;;;;;;0.30;0.20;;;11.50;99.90;;;;;;5069803;28;20952;-84
2021/12/31 05:30:14;;;;;;;0.30;0.20;;;11.50;99.90;;;;;;5080314;28;20469;-84
2021/12/31 05:32:41;;;;;;;0.30;0.20;;;11.50;99.90;;;;;;5091144;28;20483;-83
2021/12/31 05:35:09;;;;;;;0.30;0.20;;;11.50;99.90;;;;;;5078414;28;20429;-84
2021/12/31 05:37:36;;;;;;;0.30;0.20;;;11.60;99.90;;;;;;5074484;28;20567;-83
2021/12/31 05:40:05;;;;;;;0.30;0.20;;;11.60;99.90;;;;;;5070908;28;20460;-85
2021/12/31 05:42:32;;;;;;;0.30;0.20;;;11.60;99.90;;;;;;5071617;28;20927;-86
2021/12/31 05:44:59;;;;;;;0.30;0.20;;;11.60;99.90;;;;;;5060550;28;20484;-84
2021/12/31 05:47:27;;;;;;;0.30;0.10;;;11.60;99.90;;;;;;5068274;28;20659;-84
2021/12/31 05:49:54;;;;;;;0.30;0.17;;;11.60;99.90;;;;;;5070517;28;20494;-83
2021/12/31 05:52:21;;;;;;;0.30;0.20;;;11.60;99.90;;;;;;5069325;28;20878;-85
2021/12/31 05:54:49;;;;;;;0.30;0.20;;;11.60;99.90;;;;;;5064190;28;20456;-87
2021/12/31 05:57:15;;;;;;;0.30;0.20;;;11.60;99.90;;;;;;5071800;28;20525;-86
2021/12/31 05:59:42;;;;;;;0.30;0.13;;;11.60;99.90;;;;;;5084958;28;20452;-85
2021/12/31 06:02:09;;;;;;;0.30;0.20;;;11.50;99.90;;;;;;5069089;28;20459;-85
2021/12/31 06:04:38;;;;;;;0.30;0.20;;;11.50;99.90;;;;;;5069961;28;20486;-86
2021/12/31 06:07:05;;;;;;;0.30;0.10;;;11.60;99.90;;;;;;5069830;28;20487;-86
2021/12/31 06:09:32;;;;;;;0.30;0.20;;;11.50;99.90;;;;;;5073674;28;20553;-85
2021/12/31 06:12:00;;;;;;;0.30;0.20;;;11.50;99.90;;;;;;5086082;28;20501;-88
2021/12/31 06:14:29;;;;;;;0.30;0.10;;;11.40;99.90;;;;;;5073642;28;20505;-85
2021/12/31 06:17:02;;;;;;;0.30;0.20;;;11.50;99.90;;;;;;5070077;28;20460;-86
2021/12/31 06:19:29;;;;;;;0.30;0.10;;;11.50;99.90;;;;;;5088615;28;20450;-88
2021/12/31 06:21:58;;;;;;;0.30;0.10;;;11.50;99.90;;;;;;5064382;28;20520;-87
2021/12/31 06:24:24;;;;;;;0.30;0.20;;;11.50;99.90;;;;;;5082757;28;20459;-86
2021/12/31 06:26:51;;;;;;;0.30;0.20;;;11.50;99.90;;;;;;5091529;28;20566;-87
2021/12/31 06:29:18;;;;;;;0.30;0.20;;;11.50;99.90;;;;;;5081759;28;20934;-86
2021/12/31 06:31:45;;;;;;;0.30;0.20;;;11.40;99.90;;;;;;5088223;28;20443;-86
2021/12/31 06:34:12;;;;;;;0.30;0.20;;;11.40;99.90;;;;;;5088279;28;20447;-86
2021/12/31 06:36:39;;;;;;;0.30;0.20;;;11.40;99.90;;;;;;5072872;28;20835;-85
2021/12/31 06:39:08;;;;;;;0.30;0.20;;;11.40;99.90;;;;;;5072888;28;20540;-85
2021/12/31 06:41:35;;;;;;;0.30;0.20;;;11.40;99.90;;;;;;5073922;28;20451;-85
2021/12/31 06:44:02;;;;;;;0.30;0.20;;;11.40;99.90;;;;;;5064319;28;20521;-86
2021/12/31 06:46:29;;;;;;;0.30;0.20;;;11.40;99.90;;;;;;5073064;28;20483;-85
2021/12/31 06:48:56;;;;;;;0.30;0.20;;;11.40;99.90;;;;;;5072537;28;20463;-86
2021/12/31 06:51:23;;;;;;;0.30;0.20;;;11.50;99.90;;;;;;5072521;28;20528;-86
2021/12/31 06:53:50;;;;;;;0.30;0.20;;;11.50;99.90;;;;;;5081997;28;20443;-86
2021/12/31 06:56:18;;;;;;;0.30;0.17;;;11.50;99.90;;;;;;5076691;28;20529;-85
2021/12/31 06:58:45;;;;;;;0.37;0.20;;;11.50;99.90;;;;;;5070477;28;20443;-87
2021/12/31 07:01:12;;;;;;;0.30;0.20;;;11.60;99.90;;;;;;5071546;28;20876;-86
2021/12/31 07:03:39;;;;;;;0.30;0.20;;;11.50;99.90;;;;;;5072867;28;20481;-85
2021/12/31 07:06:06;;;;;;;0.30;0.20;;;11.60;99.90;;;;;;5071462;28;21053;-83
2021/12/31 07:08:33;;;;;;;0.30;0.17;;;11.60;99.90;;;;;;5073832;28;20455;-85
2021/12/31 07:11:00;;;;;;;0.40;0.33;;;11.50;99.90;;;;;;5098076;28;20440;-85
2021/12/31 07:13:28;;;;;;;0.30;0.10;;;11.60;99.90;;;;;;5093770;28;20451;-83
2021/12/31 07:15:55;;;;;;;0.30;0.10;;;11.50;99.90;;;;;;5089111;28;20531;-83
2021/12/31 07:18:23;;;;;;;0.30;0.20;;;11.50;99.90;;;;;;5084916;28;20451;-84
2021/12/31 07:20:51;;;;;;;0.30;0.10;;;11.60;99.90;;;;;;5077830;28;20464;-84
2021/12/31 07:23:19;;;;;;;0.30;0.20;;;11.60;99.90;;;;;;5082345;28;20444;-85
2021/12/31 07:25:46;;;;;;;0.30;0.10;;;11.60;99.90;;;;;;5077773;28;20456;-87
2021/12/31 07:28:15;;;;;;;0.30;0.10;;;11.50;99.90;;;;;;5081334;28;20486;-87
2021/12/31 07:30:45;;;;;;;0.30;0.13;;;11.60;99.90;;;;;;5071590;28;20617;-84
2021/12/31 07:33:16;;;;;;;0.30;0.20;;;11.60;99.90;;;;;;5072305;28;20521;-84
2021/12/31 07:35:43;;;;;;;0.30;0.10;;;11.60;99.90;;;;;;5071164;28;20491;-85
2021/12/31 07:38:18;;;;;;;0.30;0.20;;;11.60;99.90;;;;;;5066725;28;20471;-84
2021/12/31 07:40:45;;;;;;;0.30;0.20;;;11.60;99.90;;;;;;5083105;28;20466;-85
2021/12/31 07:43:12;;;;;;;0.30;0.20;;;11.60;99.90;;;;;;5079976;28;20552;-84
2021/12/31 07:45:40;;;;;;;0.30;0.10;;;11.70;99.90;;;;;;5075539;28;21107;-84
2021/12/31 07:48:08;;;;;;;0.30;0.20;;;11.70;99.90;;;;;;5071867;28;20488;-86
2021/12/31 07:50:36;;;;;;;0.30;0.20;;;11.70;99.90;;;;;;5076092;28;20509;-83
2021/12/31 07:53:03;;;;;;;0.30;0.20;;;11.80;99.90;;;;;;5080813;28;20451;-87
2021/12/31 07:55:32;;;;;;;0.30;0.20;;;11.80;99.90;;;;;;5079152;28;20560;-85
2021/12/31 07:57:58;;;;;;;0.30;0.10;;;11.80;99.90;;;;;;5080270;28;20804;-84
2021/12/31 08:00:25;;;;;;;0.30;0.20;;;11.90;99.90;;;;;;5070721;28;20455;-86
2021/12/31 08:02:55;;;;;;;0.30;0.10;;;11.80;99.90;;;;;;5073901;28;20501;-85
2021/12/31 08:05:24;;;;;;;0.30;0.20;;;11.80;99.90;;;;;;5079582;28;20714;-88
2021/12/31 08:07:51;;;;;;;0.30;0.20;;;11.80;99.90;;;;;;5082281;28;20521;-85
2021/12/31 08:10:18;;;;;;;0.30;0.20;;;11.80;99.90;;;;;;5084017;28;21312;-88
2021/12/31 08:12:45;;;;;;;0.30;0.20;;;11.80;99.90;;;;;;5072085;28;20995;-86
2021/12/31 08:15:12;;;;;;;0.30;0.13;;;11.70;99.90;;;;;;5088452;28;20451;-84
2021/12/31 08:17:39;;;;;;;3.23;1.03;;;11.70;99.90;;;;;;5084335;28;20464;-84
2021/12/31 08:20:07;;;;;;;0.30;0.20;;;11.70;99.90;;;;;;5084986;28;20929;-88
2021/12/31 08:22:36;;;;;;;0.30;0.10;;;11.70;99.90;;;;;;5083167;28;20497;-85
2021/12/31 08:25:04;;;;;;;0.77;0.67;;;11.70;99.90;;;;;;5062616;28;20701;-84
2021/12/31 08:27:31;;;;;;;1.33;1.33;;;11.60;99.90;;;;;;5065311;28;20596;-84
2021/12/31 08:29:57;;;;;;;0.30;0.20;;;11.60;99.90;;;;;;5070873;28;20937;-84
2021/12/31 08:32:24;;;;;;;0.40;0.20;;;11.60;99.90;;;;;;5070305;28;20506;-85
2021/12/31 08:34:51;;;;;;;1.50;1.40;;;11.50;99.90;;;;;;5070416;28;20899;-84
2021/12/31 08:37:18;;;;;;;0.40;0.20;;;11.50;99.90;;;;;;5080179;28;20459;-85
2021/12/31 08:39:47;;;;;;;1.03;1.03;;;11.60;99.90;;;;;;5086600;28;20569;-84
2021/12/31 08:42:14;;;;;;;1.17;1.17;;;11.70;99.90;;;;;;5070019;28;20533;-84
2021/12/31 08:44:41;;;;;;;0.40;0.30;;;11.80;99.90;;;;;;5070474;28;21318;-87
2021/12/31 08:47:08;;;;;;;1.20;1.17;;;11.90;99.90;;;;;;5071413;28;20488;-85
2021/12/31 08:49:35;;;;;;;0.30;0.20;;;12.00;99.90;;;;;;5091695;28;20470;-85
2021/12/31 08:52:02;;;;;;;0.30;0.20;;;12.10;99.90;;;;;;5110621;28;20447;-85
2021/12/31 08:54:30;;;;;;;0.30;0.20;;;12.20;99.90;;;;;;5095389;28;20443;-84
2021/12/31 08:57:00;;;;;;;0.90;0.30;;;12.30;99.90;;;;;;5087167;28;20440;-84
2021/12/31 08:59:27;;;;;;;0.30;0.20;;;12.40;99.90;;;;;;5075426;28;20454;-85
2021/12/31 09:01:54;;;;;;;0.30;0.20;;;12.50;99.90;;;;;;5084046;28;20995;-85
2021/12/31 09:04:21;;;;;;;0.30;0.20;;;12.50;99.90;;;;;;5077708;28;20520;-85
2021/12/31 09:06:48;;;;;;;0.30;0.20;;;12.60;99.90;;;;;;5078921;28;20481;-85
2021/12/31 09:09:15;;;;;;;0.30;0.20;;;12.60;99.90;;;;;;5066007;28;20644;-86
2021/12/31 09:11:43;;;;;;;0.30;0.20;;;12.60;99.90;;;;;;5068012;28;20443;-84
2021/12/31 09:14:12;;;;;;;0.30;0.20;;;12.70;99.90;;;;;;5069287;28;21056;-84
2021/12/31 09:16:40;;;;;;;0.30;0.20;;;12.80;99.90;;;;;;5067940;28;20564;-85
2021/12/31 09:19:08;;;;;;;0.30;0.20;;;12.70;99.90;;;;;;5065842;28;20915;-85
2021/12/31 09:21:35;;;;;;;0.30;0.20;;;12.60;99.90;;;;;;5087765;28;20477;-86
2021/12/31 09:24:02;;;;;;;0.40;0.30;;;12.60;99.90;;;;;;5075224;28;20448;-85
2021/12/31 09:26:29;;;;;;;2.00;0.67;;;12.60;99.90;;;;;;5056433;28;20510;-85
2021/12/31 09:28:56;;;;;;;0.30;0.20;;;12.60;99.90;;;;;;5076859;28;20519;-85
2021/12/31 09:31:24;;;;;;;0.30;0.20;;;12.70;99.90;;;;;;5071350;28;20468;-86
2021/12/31 09:33:51;;;;;;;0.30;0.20;;;12.90;99.90;;;;;;5069807;28;20461;-85
2021/12/31 09:36:18;;;;;;;0.40;0.20;;;13.00;99.90;;;;;;5068960;28;20841;-85
2021/12/31 09:38:45;;;;;;;0.30;0.20;;;13.10;99.90;;;;;;5068030;28;21047;-87
2021/12/31 09:41:12;;;;;;;0.30;0.17;;;13.10;99.90;;;;;;5068909;28;20450;-88
2021/12/31 09:43:39;;;;;;;0.30;0.20;;;13.10;99.90;;;;;;5078677;28;20992;-85
2021/12/31 09:46:06;;;;;;;0.30;0.20;;;13.20;99.90;;;;;;5088871;28;20926;-87
2021/12/31 09:48:35;;;;;;;0.30;0.20;;;13.30;99.90;;;;;;5085313;28;20497;-86
2021/12/31 09:51:06;;;;;;;0.40;0.30;;;13.40;99.90;;;;;;5088919;28;20520;-86
2021/12/31 09:53:32;;;;;;;0.30;0.17;;;13.50;99.90;;;;;;5083334;28;21155;-84
2021/12/31 09:56:00;;;;;;;0.30;0.20;;;13.60;99.90;;;;;;5069023;28;20498;-84
2021/12/31 09:58:28;;;;;;;0.30;0.20;;;13.60;99.90;;;;;;5072629;28;20448;-85
2021/12/31 10:00:57;;;;;;;0.30;0.20;;;13.70;99.90;;;;;;5089087;28;20529;-84
2021/12/31 10:03:26;;;;;;;0.30;0.20;;;13.70;99.90;;;;;;5082811;28;20993;-87
2021/12/31 10:05:58;;;;;;;0.30;0.20;;;13.60;99.90;;;;;;5069036;28;20472;-84
2021/12/31 10:08:26;;;;;;;0.30;0.20;;;13.60;99.90;;;;;;5068128;28;20509;-85
2021/12/31 10:11:08;;;;;;;0.30;0.20;;;13.70;99.90;;;;;;5061536;28;20473;-87
2021/12/31 10:13:37;;;;;;;0.30;0.20;;;13.60;99.90;;;;;;5085748;28;20952;-84
2021/12/31 10:16:04;;;;;;;0.30;0.20;;;13.60;99.90;;;;;;5069299;28;20447;-84
2021/12/31 10:18:33;;;;;;;0.50;0.43;;;13.70;99.90;;;;;;5080785;28;20504;-84
2021/12/31 10:21:02;;;;;;;0.40;0.30;;;13.70;99.90;;;;;;5078117;28;20442;-85
2021/12/31 10:23:29;;;;;;;0.30;0.20;;;13.70;99.90;;;;;;5061247;28;20491;-85
2021/12/31 10:26:10;;;;;;;0.30;0.20;;;13.70;99.90;;;;;;5069487;28;20543;-84
2021/12/31 10:28:37;;;;;;;0.30;0.20;;;13.70;99.90;;;;;;5077615;28;20507;-84
2021/12/31 10:31:11;;;;;;;0.30;0.20;;;13.70;99.90;;;;;;5091487;28;20432;-85
2021/12/31 10:33:43;;;;;;;0.30;0.20;;;13.70;99.90;;;;;;5081603;28;20517;-84
2021/12/31 10:36:32;;;;;;;0.30;0.20;;;13.80;99.90;;;;;;5090823;28;20868;-85
2021/12/31 10:39:03;;;;;;;0.30;0.20;;;13.80;99.90;;;;;;5080668;28;20493;-85
2021/12/31 10:41:30;;;;;;;0.30;0.20;;;13.90;99.90;;;;;;5070426;28;20536;-84
2021/12/31 10:43:59;;;;;;;0.30;0.20;;;13.90;99.90;;;;;;5078174;28;20478;-84
2021/12/31 10:46:27;;;;;;;0.30;0.20;;;13.80;99.90;;;;;;5080066;28;20473;-85
2021/12/31 10:48:56;;;;;;;0.30;0.20;;;13.90;99.90;;;;;;5077314;28;20544;-84
2021/12/31 10:51:41;;;;;;;0.30;0.20;;;13.90;99.90;;;;;;5069583;28;20449;-84
2021/12/31 10:54:28;;;;;;;0.30;0.20;;;13.80;99.90;;;;;;5071882;28;20460;-86
2021/12/31 10:56:56;;;;;;;0.30;0.20;;;13.80;99.90;;;;;;5068839;28;20443;-85
2021/12/31 10:59:24;;;;;;;0.30;0.20;;;13.80;99.90;;;;;;5088465;28;20445;-84
2021/12/31 11:01:51;;;;;;;0.30;0.20;;;13.90;99.90;;;;;;5087975;28;20453;-84
2021/12/31 11:04:20;;;;;;;0.30;0.20;;;13.90;99.90;;;;;;5082631;28;20462;-84
2021/12/31 11:06:50;;;;;;;0.30;0.20;;;13.90;99.90;;;;;;5072133;28;20445;-84
2021/12/31 11:09:18;;;;;;;0.30;0.20;;;13.90;99.90;;;;;;5089402;28;20487;-84
2021/12/31 11:11:47;;;;;;;0.30;0.20;;;14.00;99.90;;;;;;5074821;28;20499;-84
2021/12/31 11:14:17;;;;;;;0.30;0.20;;;14.00;99.90;;;;;;5075063;28;20784;-87
2021/12/31 11:16:44;;;;;;;0.30;0.20;;;14.10;99.90;;;;;;5091035;28;20535;-85
2021/12/31 11:19:12;;;;;;;0.30;0.20;;;14.10;99.90;;;;;;5072828;28;20449;-88
2021/12/31 11:21:40;;;;;;;0.30;0.20;;;14.10;99.90;;;;;;5071034;28;20467;-84
2021/12/31 11:24:31;;;;;;;0.30;0.20;;;14.20;99.90;;;;;;5072655;28;20499;-84
2021/12/31 11:26:59;;;;;;;0.40;0.20;;;14.10;99.90;;;;;;5071707;28;20449;-84
2021/12/31 11:29:37;;;;;;;0.30;0.20;;;14.20;99.90;;;;;;5085284;28;20574;-84
2021/12/31 11:32:06;;;;;;;0.30;0.20;;;14.20;99.90;;;;;;5072764;28;20461;-86
2021/12/31 11:34:35;;;;;;;0.30;0.20;;;14.20;99.90;;;;;;5071811;28;20463;-83
2021/12/31 11:37:02;;;;;;;0.30;0.20;;;14.20;99.90;;;;;;5090598;28;20452;-84
2021/12/31 11:39:33;;;;;;;0.73;0.73;;;14.10;99.90;;;;;;5076744;28;20560;-84
2021/12/31 11:42:02;;;;;;;0.30;0.20;;;14.20;99.90;;;;;;5081965;28;20853;-84
2021/12/31 11:44:29;;;;;;;0.30;0.20;;;14.10;99.90;;;;;;5079837;28;20455;-87
2021/12/31 11:47:18;;;;;;;0.40;0.30;;;14.20;99.90;;;;;;5091816;28;20538;-84
2021/12/31 11:49:47;;;;;;;0.30;0.20;;;14.20;99.90;;;;;;5083133;28;20519;-84
2021/12/31 11:52:20;;;;;;;0.30;0.20;;;14.30;99.90;;;;;;5078588;28;20968;-84
2021/12/31 11:55:08;;;;;;;0.30;0.20;;;14.30;99.90;;;;;;5071314;28;20438;-85
2021/12/31 11:57:37;;;;;;;0.30;0.20;;;14.20;99.90;;;;;;5066569;28;20992;-86
2021/12/31 12:00:05;;;;;;;0.30;0.20;;;14.20;99.90;;;;;;5081437;28;20499;-86
2021/12/31 12:02:39;;;;;;;0.30;0.20;;;14.20;99.90;;;;;;5078018;28;20964;-85
2021/12/31 12:05:15;;;;;;;0.30;0.20;;;14.20;99.90;;;;;;5090130;28;20452;-84
2021/12/31 12:07:46;;;;;;;1.37;0.50;;;14.20;99.90;;;;;;5097239;28;20484;-84
2021/12/31 12:10:17;;;;;;;0.30;0.20;;;14.20;99.90;;;;;;5097223;28;20457;-85
2021/12/31 12:12:49;;;;;;;0.40;0.30;;;14.20;99.90;;;;;;5085199;28;20449;-83
2021/12/31 12:15:41;;;;;;;0.40;0.40;;;14.30;99.90;;;;;;5092011;28;20450;-84
2021/12/31 12:18:08;;;;;;;0.30;0.20;;;14.30;99.90;;;;;;5063928;28;20510;-86
2021/12/31 12:20:42;;;;;;;0.30;0.20;;;14.20;99.90;;;;;;5072765;28;20439;-84
2021/12/31 12:23:21;;;;;;;0.30;0.20;;;14.10;99.90;;;;;;5072232;28;21074;-87
2021/12/31 12:25:48;;;;;;;0.37;0.30;;;14.10;99.90;;;;;;5080894;28;20446;-84
2021/12/31 12:28:19;;;;;;;0.30;0.20;;;14.10;99.90;;;;;;5077535;28;20487;-84
2021/12/31 12:30:53;;;;;;;0.30;0.20;;;14.20;99.90;;;;;;5071656;28;20453;-86
2021/12/31 12:33:23;;;;;;;0.30;0.20;;;14.10;99.90;;;;;;5076745;28;21140;-84
2021/12/31 12:35:51;;;;;;;0.30;0.20;;;14.20;99.90;;;;;;5085779;28;20497;-87
2021/12/31 12:38:21;;;;;;;0.30;0.20;;;14.20;99.90;;;;;;5066906;28;20483;-84
2021/12/31 12:40:52;;;;;;;0.30;0.20;;;14.10;99.90;;;;;;5070530;28;20453;-85
2021/12/31 12:43:22;;;;;;;0.50;0.40;;;14.10;99.90;;;;;;5078732;28;20983;-84
2021/12/31 12:45:51;;;;;;;1.00;0.57;;;14.10;99.90;;;;;;5088372;28;20448;-84
2021/12/31 12:48:29;;;;;;;0.30;0.20;;;14.20;99.90;;;;;;5070971;28;20525;-84
2021/12/31 12:50:57;;;;;;;0.70;0.70;;;14.10;99.90;;;;;;5063286;28;20617;-85
2021/12/31 12:53:27;;;;;;;0.30;0.20;;;14.10;99.90;;;;;;5073641;28;20847;-85
2021/12/31 12:56:05;;;;;;;0.30;0.20;;;14.10;99.90;;;;;;5071821;28;20843;-86